createdAt,value
2018-12-19T00:00:40.056Z,81.86
2018-12-19T00:03:09.866Z,81.59
2018-12-19T00:05:39.440Z,81.75
2018-12-19T00:08:09.902Z,81.77
2018-12-19T00:10:38.627Z,82.15
2018-12-19T00:13:10.007Z,82.14
2018-12-19T00:15:38.870Z,81.40
2018-12-19T00:18:07.736Z,82.05
2018-12-19T00:20:36.877Z,81.49
2018-12-19T00:23:06.037Z,82.12
2018-12-19T00:25:35.568Z,81.56
2018-12-19T00:28:04.403Z,82.02
2018-12-19T00:30:33.380Z,81.96
2018-12-19T00:33:03.054Z,82.17
2018-12-19T00:35:31.895Z,82.17
2018-12-19T00:38:01.516Z,82.15
2018-12-19T00:40:30.311Z,82.22
2018-12-19T00:42:59.065Z,81.80
2018-12-19T00:45:28.584Z,81.75
2018-12-19T00:47:57.532Z,81.88
2018-12-19T00:50:27.148Z,82.42
2018-12-19T00:52:56.282Z,81.64
2018-12-19T00:55:25.725Z,82.34
2018-12-19T00:57:55.059Z,81.69
2018-12-19T01:00:23.795Z,82.42
2018-12-19T01:02:53.513Z,82.08
2018-12-19T01:05:23.023Z,81.91
2018-12-19T01:07:52.389Z,82.15
2018-12-19T01:10:21.250Z,81.83
2018-12-19T01:12:50.142Z,81.94
2018-12-19T01:15:18.898Z,81.45
2018-12-19T01:17:47.998Z,81.90
2018-12-19T01:20:17.197Z,81.74
2018-12-19T01:22:46.070Z,81.70
2018-12-19T01:25:14.918Z,82.22
2018-12-19T01:27:43.625Z,82.04
2018-12-19T01:30:12.489Z,82.32
2018-12-19T01:32:41.417Z,82.12
2018-12-19T01:35:10.302Z,81.92
2018-12-19T01:37:40.004Z,81.81
2018-12-19T01:40:09.213Z,81.73
2018-12-19T01:42:38.848Z,82.02
2018-12-19T01:45:08.325Z,81.43
2018-12-19T01:47:37.019Z,81.56
2018-12-19T01:50:06.996Z,81.65
2018-12-19T01:52:36.480Z,81.56
2018-12-19T01:55:06.348Z,81.45
2018-12-19T01:57:35.578Z,81.63
2018-12-19T02:00:05.215Z,81.92
2018-12-19T02:02:34.548Z,82.30
2018-12-19T02:05:06.667Z,81.69
2018-12-19T02:07:35.460Z,81.85
2018-12-19T02:10:05.232Z,81.67
2018-12-19T02:12:33.945Z,81.50
2018-12-19T02:15:03.182Z,81.89
2018-12-19T02:17:31.920Z,81.92
2018-12-19T02:20:02.263Z,81.22
2018-12-19T02:22:31.072Z,81.33
2018-12-19T02:24:59.896Z,81.11
2018-12-19T02:27:28.612Z,81.22
2018-12-19T02:29:58.344Z,81.46
2018-12-19T02:32:27.628Z,81.73
2018-12-19T02:34:56.349Z,81.48
2018-12-19T02:37:25.573Z,80.90
2018-12-19T02:39:55.096Z,81.28
2018-12-19T02:42:23.852Z,81.21
2018-12-19T02:44:53.010Z,81.24
2018-12-19T02:47:21.799Z,81.23
2018-12-19T02:49:50.691Z,81.87
2018-12-19T02:52:20.265Z,81.95
2018-12-19T02:54:49.142Z,82.05
2018-12-19T02:57:18.907Z,81.53
2018-12-19T02:59:48.789Z,81.61
2018-12-19T03:02:18.363Z,82.25
2018-12-19T03:04:47.845Z,82.29
2018-12-19T03:07:16.682Z,81.66
2018-12-19T03:09:46.055Z,81.61
2018-12-19T03:12:14.890Z,81.50
2018-12-19T03:14:43.611Z,81.55
2018-12-19T03:17:13.047Z,82.29
2018-12-19T03:19:41.793Z,81.76
2018-12-19T03:22:10.647Z,81.37
2018-12-19T03:24:39.369Z,81.84
2018-12-19T03:27:08.194Z,81.58
2018-12-19T03:29:37.402Z,81.93
2018-12-19T03:32:07.124Z,81.65
2018-12-19T03:34:36.140Z,81.89
2018-12-19T03:37:05.390Z,81.55
2018-12-19T03:39:34.819Z,81.71
2018-12-19T03:42:03.655Z,81.93
2018-12-19T03:44:32.407Z,81.40
2018-12-19T03:47:01.289Z,81.28
2018-12-19T03:49:30.105Z,81.90
2018-12-19T03:51:59.541Z,81.71
2018-12-19T03:54:29.264Z,81.87
2018-12-19T03:56:58.764Z,81.82
2018-12-19T03:59:28.061Z,81.76
2018-12-19T04:01:57.358Z,82.04
2018-12-19T04:04:27.452Z,82.23
2018-12-19T04:06:56.168Z,82.53
2018-12-19T04:09:25.664Z,82.37
2018-12-19T04:11:54.393Z,82.18
2018-12-19T04:14:23.077Z,82.67
2018-12-19T04:16:51.862Z,82.40
2018-12-19T04:19:20.648Z,82.50
2018-12-19T04:21:49.597Z,82.06
2018-12-19T04:24:18.529Z,82.89
2018-12-19T04:26:47.656Z,82.39
2018-12-19T04:29:17.085Z,82.57
2018-12-19T04:31:46.537Z,82.40
2018-12-19T04:34:16.395Z,82.63
2018-12-19T04:36:45.908Z,82.92
2018-12-19T04:39:15.358Z,82.63
2018-12-19T04:41:44.051Z,83.08
2018-12-19T04:44:12.897Z,82.88
2018-12-19T04:46:41.769Z,83.00
2018-12-19T04:49:10.568Z,82.97
2018-12-19T04:51:39.999Z,82.58
2018-12-19T04:54:08.787Z,82.88
2018-12-19T04:56:38.176Z,82.53
2018-12-19T04:59:10.674Z,83.04
2018-12-19T05:01:40.177Z,82.99
2018-12-19T05:04:12.717Z,83.25
2018-12-19T05:06:44.528Z,83.33
2018-12-19T05:09:13.853Z,83.30
2018-12-19T05:11:42.597Z,83.54
2018-12-19T05:14:11.365Z,83.12
2018-12-19T05:16:40.177Z,83.08
2018-12-19T05:19:09.596Z,83.24
2018-12-19T05:21:38.385Z,83.35
2018-12-19T05:24:07.122Z,83.23
2018-12-19T05:26:36.074Z,83.07
2018-12-19T05:29:05.667Z,83.43
2018-12-19T05:31:34.421Z,83.49
2018-12-19T05:34:04.073Z,83.43
2018-12-19T05:36:32.856Z,83.28
2018-12-19T05:39:02.269Z,82.97
2018-12-19T05:41:30.986Z,83.20
2018-12-19T05:43:59.692Z,82.45
2018-12-19T05:46:28.426Z,82.75
2018-12-19T05:48:57.206Z,82.79
2018-12-19T05:51:26.891Z,82.41
2018-12-19T05:53:55.682Z,82.24
2018-12-19T05:56:25.101Z,82.75
2018-12-19T05:58:54.422Z,82.80
2018-12-19T06:01:23.196Z,82.25
2018-12-19T06:03:52.520Z,82.73
2018-12-19T06:06:21.607Z,82.32
2018-12-19T06:08:51.037Z,82.43
2018-12-19T06:11:19.896Z,82.35
2018-12-19T06:13:48.862Z,81.88
2018-12-19T06:16:17.928Z,82.25
2018-12-19T06:18:46.853Z,81.62
2018-12-19T06:21:16.196Z,82.16
2018-12-19T06:23:44.924Z,81.74
2018-12-19T06:26:13.662Z,82.01
2018-12-19T06:28:43.396Z,82.29
2018-12-19T06:31:13.581Z,81.49
2018-12-19T06:33:43.233Z,81.68
2018-12-19T06:36:12.025Z,81.82
2018-12-19T06:38:41.489Z,81.37
2018-12-19T06:41:10.424Z,81.08
2018-12-19T06:43:39.927Z,81.30
2018-12-19T06:46:08.718Z,80.72
2018-12-19T06:48:37.507Z,81.35
2018-12-19T06:51:07.218Z,81.12
2018-12-19T06:53:36.785Z,80.49
2018-12-19T06:56:06.247Z,80.82
2018-12-19T06:58:35.198Z,80.70
2018-12-19T07:01:05.904Z,81.06
2018-12-19T07:03:35.861Z,80.77
2018-12-19T07:06:05.929Z,81.05
2018-12-19T07:08:35.747Z,81.25
2018-12-19T07:11:05.337Z,81.20
2018-12-19T07:13:34.189Z,81.34
2018-12-19T07:16:02.881Z,81.24
2018-12-19T07:18:32.833Z,80.74
2018-12-19T07:21:01.743Z,81.06
2018-12-19T07:23:30.502Z,81.01
2018-12-19T07:25:59.919Z,80.92
2018-12-19T07:28:29.453Z,80.65
2018-12-19T07:30:58.198Z,81.58
2018-12-19T07:33:27.520Z,81.45
2018-12-19T07:35:56.253Z,81.07
2018-12-19T07:38:25.726Z,81.10
2018-12-19T07:40:54.496Z,81.58
2018-12-19T07:43:23.285Z,81.14
2018-12-19T07:45:52.075Z,81.15
2018-12-19T07:48:21.269Z,81.37
2018-12-19T07:50:50.224Z,81.67
2018-12-19T07:53:19.752Z,81.44
2018-12-19T07:55:49.725Z,81.20
2018-12-19T07:58:19.265Z,81.16
2018-12-19T08:00:48.837Z,81.17
2018-12-19T08:03:18.654Z,81.59
2018-12-19T08:05:47.965Z,81.43
2018-12-19T08:08:17.550Z,81.29
2018-12-19T08:10:52.022Z,80.84
2018-12-19T08:13:17.475Z,81.15
2018-12-19T08:15:46.324Z,81.17
2018-12-19T08:18:15.310Z,81.15
2018-12-19T08:20:44.185Z,81.28
2018-12-19T08:23:13.210Z,81.07
2018-12-19T08:25:42.541Z,81.18
2018-12-19T08:28:12.146Z,80.74
2018-12-19T08:30:40.938Z,80.66
2018-12-19T08:33:09.673Z,80.83
2018-12-19T08:35:38.462Z,80.89
2018-12-19T08:38:08.693Z,81.02
2018-12-19T08:40:37.485Z,81.06
2018-12-19T08:43:06.334Z,80.92
2018-12-19T08:45:35.636Z,81.35
2018-12-19T08:48:04.537Z,81.36
2018-12-19T08:50:33.348Z,81.17
2018-12-19T08:53:02.490Z,81.13
2018-12-19T08:55:31.212Z,80.99
2018-12-19T08:58:00.502Z,81.28
2018-12-19T09:00:29.761Z,80.81
2018-12-19T09:02:59.268Z,81.02
2018-12-19T09:05:28.565Z,81.00
2018-12-19T09:07:57.941Z,80.81
2018-12-19T09:10:26.673Z,80.86
2018-12-19T09:12:55.424Z,80.66
2018-12-19T09:15:29.322Z,80.51
2018-12-19T09:17:58.576Z,80.57
2018-12-19T09:20:27.513Z,80.52
2018-12-19T09:22:56.669Z,80.64
2018-12-19T09:25:25.479Z,80.67
2018-12-19T09:27:55.136Z,80.62
2018-12-19T09:30:24.069Z,80.71
2018-12-19T09:32:52.997Z,80.64
2018-12-19T09:35:21.872Z,80.29
2018-12-19T09:37:50.735Z,80.28
2018-12-19T09:40:20.035Z,80.56
2018-12-19T09:42:49.788Z,80.37
2018-12-19T09:45:18.547Z,80.27
2018-12-19T09:47:47.368Z,80.67
2018-12-19T09:50:16.277Z,80.48
2018-12-19T09:52:45.654Z,80.33
2018-12-19T09:55:14.406Z,80.50
2018-12-19T09:57:43.777Z,80.67
2018-12-19T10:00:18.627Z,80.73
2018-12-19T10:02:49.391Z,80.68
2018-12-19T10:05:19.181Z,80.71
2018-12-19T10:07:48.835Z,80.80
2018-12-19T10:10:18.377Z,81.06
2018-12-19T10:12:47.307Z,81.10
2018-12-19T10:15:16.296Z,81.11
2018-12-19T10:17:45.222Z,81.25
2018-12-19T10:20:14.823Z,81.32
2018-12-19T10:22:43.615Z,81.50
2018-12-19T10:25:13.791Z,81.58
2018-12-19T10:27:43.522Z,81.56
2018-12-19T10:30:14.411Z,81.97
2018-12-19T10:32:44.121Z,82.04
2018-12-19T10:35:12.992Z,82.12
2018-12-19T10:37:41.766Z,82.14
2018-12-19T10:40:12.433Z,82.34
2018-12-19T10:42:41.301Z,82.37
2018-12-19T10:45:11.094Z,82.43
2018-12-19T10:47:39.880Z,82.73
2018-12-19T10:50:11.385Z,82.94
2018-12-19T10:52:42.999Z,83.13
2018-12-19T10:57:44.881Z,83.35
2018-12-19T11:00:20.025Z,83.51
2018-12-19T11:02:49.493Z,83.47
2018-12-19T11:05:18.592Z,83.60
2018-12-19T11:07:50.065Z,83.69
2018-12-19T11:10:18.856Z,84.26
2018-12-19T11:12:47.733Z,84.51
2018-12-19T11:15:16.520Z,84.53
2018-12-19T11:17:46.424Z,84.44
2018-12-19T11:20:15.146Z,84.71
2018-12-19T11:22:43.893Z,84.44
2018-12-19T11:25:12.684Z,84.21
2018-12-19T11:27:41.378Z,84.69
2018-12-19T11:30:10.955Z,84.47
2018-12-19T11:32:39.675Z,84.43
2018-12-19T11:35:08.377Z,84.56
2018-12-19T11:37:37.224Z,84.67
2018-12-19T11:40:08.527Z,84.73
2018-12-19T11:42:37.349Z,84.87
2018-12-19T11:45:06.536Z,85.19
2018-12-19T11:47:35.304Z,84.93
2018-12-19T11:50:04.052Z,85.21
2018-12-19T11:52:33.377Z,85.41
2018-12-19T11:55:02.093Z,85.67
2018-12-19T11:57:31.576Z,85.50
2018-12-19T12:00:01.161Z,85.08
2018-12-19T12:02:30.725Z,85.46
2018-12-19T12:04:59.840Z,85.38
2018-12-19T12:07:28.783Z,85.40
2018-12-19T12:09:58.325Z,85.37
2018-12-19T12:12:27.073Z,85.77
2018-12-19T12:14:56.234Z,85.59
2018-12-19T12:17:25.319Z,85.91
2018-12-19T12:19:54.052Z,85.77
2018-12-19T12:22:22.785Z,85.74
2018-12-19T12:24:52.116Z,85.59
2018-12-19T12:27:20.885Z,85.57
2018-12-19T12:29:50.265Z,85.83
2018-12-19T12:32:19.091Z,85.61
2018-12-19T12:34:48.048Z,86.02
2018-12-19T12:37:16.864Z,86.28
2018-12-19T12:39:46.356Z,86.00
2018-12-19T12:42:15.196Z,86.08
2018-12-19T12:44:44.163Z,86.38
2018-12-19T12:47:13.547Z,86.69
2018-12-19T12:49:42.281Z,86.52
2018-12-19T12:52:11.322Z,86.66
2018-12-19T12:54:39.997Z,86.67
2018-12-19T12:57:09.689Z,86.97
2018-12-19T12:59:39.444Z,87.17
2018-12-19T13:02:08.827Z,86.93
2018-12-19T13:04:37.939Z,87.27
2018-12-19T13:07:06.707Z,86.99
2018-12-19T13:09:36.058Z,87.00
2018-12-19T13:12:04.800Z,86.87
2018-12-19T13:14:34.606Z,86.92
2018-12-19T13:17:03.331Z,86.94
2018-12-19T13:19:32.005Z,87.05
2018-12-19T13:22:01.857Z,86.92
2018-12-19T13:24:30.669Z,87.16
2018-12-19T13:26:59.396Z,87.21
2018-12-19T13:29:29.110Z,87.24
2018-12-19T13:31:58.199Z,87.20
2018-12-19T13:34:26.953Z,87.57
2018-12-19T13:36:55.939Z,87.75
2018-12-19T13:39:25.331Z,87.68
2018-12-19T13:41:54.097Z,87.91
2018-12-19T13:44:22.833Z,88.10
2018-12-19T13:46:51.590Z,88.29
2018-12-19T13:49:20.369Z,88.45
2018-12-19T13:51:50.195Z,88.28
2018-12-19T13:54:18.893Z,88.55
2018-12-19T13:56:48.442Z,88.37
2018-12-19T13:59:18.412Z,88.51
2018-12-19T14:01:47.917Z,88.57
2018-12-19T14:04:17.648Z,88.61
2018-12-19T14:06:46.351Z,88.69
2018-12-19T14:09:15.680Z,88.52
2018-12-19T14:11:44.849Z,88.77
2018-12-19T14:14:13.536Z,88.82
2018-12-19T14:16:42.252Z,88.98
2018-12-19T14:19:11.049Z,89.02
2018-12-19T14:21:40.442Z,89.00
2018-12-19T14:24:09.791Z,89.06
2018-12-19T14:26:38.727Z,89.02
2018-12-19T14:29:08.020Z,88.92
2018-12-19T14:31:36.887Z,88.96
2018-12-19T14:34:05.637Z,89.15
2018-12-19T14:36:34.396Z,88.79
2018-12-19T14:41:55.841Z,88.51
2018-12-19T14:44:24.615Z,88.51
2018-12-19T14:46:53.337Z,88.41
2018-12-19T14:49:22.118Z,88.31
2018-12-19T14:51:51.764Z,88.27
2018-12-19T14:54:20.598Z,88.36
2018-12-19T14:56:50.003Z,88.27
2018-12-19T14:59:19.326Z,88.26
2018-12-19T15:01:49.427Z,88.37
2018-12-19T15:04:18.809Z,88.23
2018-12-19T15:06:47.623Z,88.58
2018-12-19T15:09:16.917Z,88.37
2018-12-19T15:11:45.755Z,88.31
2018-12-19T15:14:14.486Z,88.39
2018-12-19T15:16:43.796Z,88.70
2018-12-19T15:19:12.522Z,88.29
2018-12-19T15:21:41.311Z,88.06
2018-12-19T15:24:10.826Z,88.02
2018-12-19T15:26:39.659Z,87.97
2018-12-19T15:29:09.172Z,87.86
2018-12-19T15:31:37.928Z,87.64
2018-12-19T15:34:06.693Z,87.95
2018-12-19T15:36:35.688Z,87.82
2018-12-19T15:39:08.267Z,87.93
2018-12-19T15:41:37.280Z,87.88
2018-12-19T15:44:06.060Z,88.06
2018-12-19T15:46:34.900Z,88.01
2018-12-19T15:49:03.673Z,88.09
2018-12-19T15:51:32.967Z,88.25
2018-12-19T15:54:01.752Z,88.11
2018-12-19T15:56:31.306Z,88.64
2018-12-19T15:59:01.230Z,88.15
2018-12-19T16:01:29.965Z,88.32
2018-12-19T16:03:59.298Z,88.31
2018-12-19T16:06:28.740Z,88.26
2018-12-19T16:08:57.958Z,88.44
2018-12-19T16:11:26.641Z,88.65
2018-12-19T16:13:55.688Z,88.62
2018-12-19T16:16:24.643Z,88.47
2018-12-19T16:18:53.419Z,88.60
2018-12-19T16:21:22.223Z,88.38
2018-12-19T16:23:52.130Z,88.38
2018-12-19T16:26:20.925Z,88.47
2018-12-19T16:28:50.664Z,88.42
2018-12-19T16:31:19.452Z,88.70
2018-12-19T16:33:48.338Z,88.41
2018-12-19T16:36:17.241Z,88.49
2018-12-19T16:38:46.446Z,88.55
2018-12-19T16:41:15.200Z,88.37
2018-12-19T16:43:44.028Z,88.36
2018-12-19T16:46:13.490Z,88.54
2018-12-19T16:48:42.385Z,88.36
2018-12-19T16:51:11.122Z,88.21
2018-12-19T16:53:40.381Z,88.39
2018-12-19T16:56:09.662Z,88.10
2018-12-19T16:58:38.388Z,87.84
2018-12-19T17:01:07.739Z,87.94
2018-12-19T17:03:37.425Z,88.13
2018-12-19T17:06:06.266Z,88.01
2018-12-19T17:08:36.042Z,87.78
2018-12-19T17:11:04.798Z,87.97
2018-12-19T17:13:33.525Z,88.04
2018-12-19T17:16:02.280Z,88.08
2018-12-19T17:18:31.132Z,88.07
2018-12-19T17:21:00.016Z,88.41
2018-12-19T17:23:29.894Z,88.52
2018-12-19T17:25:58.682Z,88.66
2018-12-19T17:28:28.082Z,88.82
2018-12-19T17:30:56.883Z,88.64
2018-12-19T17:33:25.617Z,88.95
2018-12-19T17:35:54.988Z,88.76
2018-12-19T17:38:24.312Z,88.66
2018-12-19T17:40:53.103Z,88.63
2018-12-19T17:43:21.854Z,88.75
2018-12-19T17:45:51.769Z,88.65
2018-12-19T17:48:20.592Z,88.75
2018-12-19T17:50:49.497Z,88.46
2018-12-19T17:53:18.949Z,88.31
2018-12-19T17:58:39.503Z,88.29
2018-12-19T18:01:08.908Z,88.24
2018-12-19T18:03:38.322Z,88.08
2018-12-19T18:06:07.022Z,87.87
2018-12-19T18:08:36.550Z,88.08
2018-12-19T18:11:05.368Z,88.03
2018-12-19T18:13:34.788Z,87.62
2018-12-19T18:16:03.528Z,87.78
2018-12-19T18:18:32.477Z,87.58
2018-12-19T18:21:01.746Z,87.97
2018-12-19T18:23:32.166Z,88.07
2018-12-19T18:26:00.884Z,87.83
2018-12-19T18:28:30.336Z,87.92
2018-12-19T18:30:59.113Z,87.84
2018-12-19T18:33:27.862Z,87.89
2018-12-19T18:38:42.880Z,87.84
2018-12-19T18:41:11.572Z,87.67
2018-12-19T18:43:40.330Z,87.96
2018-12-19T18:46:09.635Z,87.81
2018-12-19T18:48:38.471Z,87.66
2018-12-19T18:51:07.321Z,87.61
2018-12-19T18:53:39.242Z,87.70
2018-12-19T18:56:09.331Z,87.63
2018-12-19T18:58:39.095Z,87.69
2018-12-19T19:01:09.091Z,88.05
2018-12-19T19:06:25.356Z,87.75
2018-12-19T19:08:54.651Z,87.70
2018-12-19T19:11:23.453Z,87.54
2018-12-19T19:13:52.880Z,87.41
2018-12-19T19:16:21.701Z,87.71
2018-12-19T19:18:51.236Z,87.31
2018-12-19T19:21:21.488Z,87.58
2018-12-19T19:23:51.282Z,87.50
2018-12-19T19:26:20.250Z,87.72
2018-12-19T19:28:49.835Z,87.74
2018-12-19T19:31:18.709Z,87.77
2018-12-19T19:33:47.492Z,87.55
2018-12-19T19:36:16.256Z,87.45
2018-12-19T19:38:45.580Z,87.48
2018-12-19T19:41:14.450Z,87.28
2018-12-19T19:43:43.205Z,87.36
2018-12-19T19:46:13.404Z,87.32
2018-12-19T19:48:42.321Z,87.33
2018-12-19T19:51:16.795Z,87.20
2018-12-19T19:53:42.926Z,86.99
2018-12-19T19:56:12.495Z,87.03
2018-12-19T19:58:42.263Z,87.02
2018-12-19T20:01:11.468Z,86.74
2018-12-19T20:03:40.798Z,86.56
2018-12-19T20:06:09.560Z,86.71
2018-12-19T20:08:39.176Z,86.71
2018-12-19T20:11:08.189Z,86.40
2018-12-19T20:13:37.452Z,86.20
2018-12-19T20:16:06.544Z,86.36
2018-12-19T20:18:35.334Z,86.53
2018-12-19T20:21:04.764Z,86.14
2018-12-19T20:23:34.292Z,86.19
2018-12-19T20:26:03.743Z,86.23
2018-12-19T20:28:33.065Z,86.56
2018-12-19T20:31:01.898Z,86.51
2018-12-19T20:33:30.590Z,86.20
2018-12-19T20:35:59.692Z,86.62
2018-12-19T20:38:29.158Z,86.74
2018-12-19T20:40:57.951Z,86.70
2018-12-19T20:43:26.706Z,86.73
2018-12-19T20:45:56.166Z,86.71
2018-12-19T20:48:24.916Z,86.65
2018-12-19T20:50:54.771Z,86.62
2018-12-19T20:53:23.950Z,86.22
2018-12-19T20:55:53.371Z,85.93
2018-12-19T20:58:23.305Z,85.97
2018-12-19T21:00:52.854Z,86.11
2018-12-19T21:03:22.467Z,86.09
2018-12-19T21:05:51.978Z,85.54
2018-12-19T21:08:21.419Z,85.69
2018-12-19T21:10:50.352Z,85.74
2018-12-19T21:13:19.853Z,85.75
2018-12-19T21:15:48.657Z,85.77
2018-12-19T21:18:23.577Z,85.51
2018-12-19T21:20:52.462Z,85.67
2018-12-19T21:23:21.840Z,85.64
2018-12-19T21:25:51.211Z,85.90
2018-12-19T21:28:20.601Z,85.67
2018-12-19T21:30:49.492Z,85.70
2018-12-19T21:33:18.395Z,85.66
2018-12-19T21:35:47.227Z,85.62
2018-12-19T21:38:16.775Z,85.40
2018-12-19T21:40:45.621Z,85.34
2018-12-19T21:43:14.320Z,84.99
2018-12-19T21:45:44.368Z,85.01
2018-12-19T21:48:13.189Z,85.04
2018-12-19T21:50:41.973Z,85.15
2018-12-19T21:53:11.351Z,84.73
2018-12-19T21:55:41.654Z,84.39
2018-12-19T21:58:10.537Z,84.11
2018-12-19T22:00:42.006Z,84.25
2018-12-19T22:03:11.482Z,84.00
2018-12-19T22:05:40.646Z,83.97
2018-12-19T22:08:10.018Z,83.83
2018-12-19T22:10:38.821Z,84.30
2018-12-19T22:13:07.563Z,84.36
2018-12-19T22:15:36.390Z,84.26
2018-12-19T22:18:10.470Z,84.20
2018-12-19T22:20:39.330Z,84.24
2018-12-19T22:23:08.707Z,84.38
2018-12-19T22:25:38.589Z,84.33
2018-12-19T22:28:07.956Z,84.59
2018-12-19T22:30:36.732Z,84.32
2018-12-19T22:33:05.560Z,84.16
2018-12-19T22:35:34.361Z,84.28
2018-12-19T22:38:03.103Z,84.22
2018-12-19T22:40:32.749Z,84.04
2018-12-19T22:43:01.493Z,84.12
2018-12-19T22:45:30.994Z,84.13
2018-12-19T22:47:59.727Z,84.24
2018-12-19T22:50:29.142Z,84.22
2018-12-19T22:52:59.790Z,84.37
2018-12-19T22:55:29.530Z,84.17
2018-12-19T22:57:58.321Z,84.41
2018-12-19T23:00:29.648Z,84.42
2018-12-19T23:03:05.899Z,84.55
2018-12-19T23:05:39.818Z,84.40
2018-12-19T23:08:09.489Z,84.45
2018-12-19T23:10:38.276Z,84.36
2018-12-19T23:13:07.976Z,84.27
2018-12-19T23:15:37.276Z,84.35
2018-12-19T23:18:11.297Z,84.61
2018-12-19T23:20:40.235Z,84.25
2018-12-19T23:23:10.416Z,84.40
2018-12-19T23:25:39.265Z,84.29
2018-12-19T23:28:09.300Z,84.12
2018-12-19T23:30:38.107Z,84.25
2018-12-19T23:33:06.879Z,84.36
2018-12-19T23:35:36.171Z,84.15
2018-12-19T23:38:05.953Z,84.16
2018-12-19T23:40:35.248Z,84.16
2018-12-19T23:43:04.349Z,84.10
2018-12-19T23:45:33.721Z,84.14
2018-12-19T23:48:02.886Z,83.96
2018-12-19T23:50:32.442Z,84.08
2018-12-19T23:53:02.070Z,83.94
2018-12-19T23:55:31.481Z,84.34
2018-12-19T23:58:00.510Z,84.22
